sensor_id;sensor_type;location;lat;lon;timestamp;P1;durP1;ratioP1;P2;durP2;ratioP2
1410;SDS011;700;51.906;8.404;2023-07-20T00:01:39;6.40;;;5.80;;
1410;SDS011;700;51.906;8.404;2023-07-20T00:06:41;7.47;;;6.50;;
1410;SDS011;700;51.906;8.404;2023-07-20T00:11:50;5.73;;;5.13;;
1410;SDS011;700;51.906;8.404;2023-07-20T00:16:51;8.00;;;5.83;;
1410;SDS011;700;51.906;8.404;2023-07-20T00:21:57;6.93;;;6.00;;
1410;SDS011;700;51.906;8.404;2023-07-20T00:26:59;6.00;;;5.50;;
1410;SDS011;700;51.906;8.404;2023-07-20T00:32:00;7.77;;;6.13;;
1410;SDS011;700;51.906;8.404;2023-07-20T00:37:01;7.50;;;6.90;;
1410;SDS011;700;51.906;8.404;2023-07-20T00:42:04;7.53;;;6.67;;
1410;SDS011;700;51.906;8.404;2023-07-20T00:47:07;8.07;;;7.27;;
1410;SDS011;700;51.906;8.404;2023-07-20T00:52:13;7.63;;;6.93;;
1410;SDS011;700;51.906;8.404;2023-07-20T00:57:15;7.97;;;7.27;;
1410;SDS011;700;51.906;8.404;2023-07-20T01:02:15;8.00;;;7.20;;
1410;SDS011;700;51.906;8.404;2023-07-20T01:07:35;8.27;;;7.47;;
1410;SDS011;700;51.906;8.404;2023-07-20T01:17:47;10.00;;;9.00;;
1410;SDS011;700;51.906;8.404;2023-07-20T01:33:31;10.13;;;9.20;;
1410;SDS011;700;51.906;8.404;2023-07-20T01:38:34;12.10;;;10.40;;
1410;SDS011;700;51.906;8.404;2023-07-20T01:43:35;11.10;;;9.90;;
1410;SDS011;700;51.906;8.404;2023-07-20T01:48:36;18.30;;;14.30;;
1410;SDS011;700;51.906;8.404;2023-07-20T01:53:39;21.10;;;15.90;;
1410;SDS011;700;51.906;8.404;2023-07-20T01:58:42;26.87;;;20.17;;
1410;SDS011;700;51.906;8.404;2023-07-20T02:03:43;27.23;;;19.50;;
1410;SDS011;700;51.906;8.404;2023-07-20T02:08:43;30.43;;;21.27;;
1410;SDS011;700;51.906;8.404;2023-07-20T02:13:44;26.70;;;19.13;;
1410;SDS011;700;51.906;8.404;2023-07-20T02:18:47;23.80;;;17.90;;
1410;SDS011;700;51.906;8.404;2023-07-20T02:23:48;20.37;;;15.90;;
1410;SDS011;700;51.906;8.404;2023-07-20T02:28:48;19.03;;;15.40;;
1410;SDS011;700;51.906;8.404;2023-07-20T02:33:49;22.03;;;14.50;;
1410;SDS011;700;51.906;8.404;2023-07-20T02:38:50;15.10;;;13.50;;
1410;SDS011;700;51.906;8.404;2023-07-20T02:43:50;15.40;;;13.80;;
1410;SDS011;700;51.906;8.404;2023-07-20T02:48:51;14.07;;;11.17;;
1410;SDS011;700;51.906;8.404;2023-07-20T02:53:56;15.63;;;12.97;;
1410;SDS011;700;51.906;8.404;2023-07-20T02:59:00;14.27;;;12.17;;
1410;SDS011;700;51.906;8.404;2023-07-20T03:04:04;16.43;;;14.13;;
1410;SDS011;700;51.906;8.404;2023-07-20T03:09:10;17.40;;;12.67;;
1410;SDS011;700;51.906;8.404;2023-07-20T03:14:10;14.03;;;12.20;;
1410;SDS011;700;51.906;8.404;2023-07-20T03:19:13;14.57;;;13.17;;
1410;SDS011;700;51.906;8.404;2023-07-20T03:24:16;13.20;;;11.27;;
1410;SDS011;700;51.906;8.404;2023-07-20T03:29:17;14.47;;;12.83;;
1410;SDS011;700;51.906;8.404;2023-07-20T03:34:18;13.80;;;11.60;;
1410;SDS011;700;51.906;8.404;2023-07-20T03:39:19;13.07;;;11.70;;
1410;SDS011;700;51.906;8.404;2023-07-20T03:44:21;13.20;;;11.93;;
1410;SDS011;700;51.906;8.404;2023-07-20T03:49:29;13.77;;;11.77;;
1410;SDS011;700;51.906;8.404;2023-07-20T03:54:34;12.30;;;11.10;;
1410;SDS011;700;51.906;8.404;2023-07-20T03:59:40;10.70;;;9.63;;
1410;SDS011;700;51.906;8.404;2023-07-20T04:04:46;11.07;;;9.73;;
1410;SDS011;700;51.906;8.404;2023-07-20T04:09:46;11.00;;;9.07;;
1410;SDS011;700;51.906;8.404;2023-07-20T04:14:47;11.83;;;10.63;;
1410;SDS011;700;51.906;8.404;2023-07-20T04:19:47;11.17;;;9.17;;
1410;SDS011;700;51.906;8.404;2023-07-20T04:24:48;14.73;;;11.83;;
1410;SDS011;700;51.906;8.404;2023-07-20T04:29:51;10.77;;;9.47;;
1410;SDS011;700;51.906;8.404;2023-07-20T04:34:51;9.70;;;8.43;;
1410;SDS011;700;51.906;8.404;2023-07-20T04:39:52;7.03;;;5.67;;
1410;SDS011;700;51.906;8.404;2023-07-20T04:44:53;7.73;;;5.10;;
1410;SDS011;700;51.906;8.404;2023-07-20T04:49:53;5.23;;;4.73;;
1410;SDS011;700;51.906;8.404;2023-07-20T04:54:54;6.37;;;5.13;;
1410;SDS011;700;51.906;8.404;2023-07-20T04:59:54;4.60;;;4.20;;
1410;SDS011;700;51.906;8.404;2023-07-20T05:04:55;4.43;;;4.03;;
1410;SDS011;700;51.906;8.404;2023-07-20T05:09:56;4.90;;;4.17;;
1410;SDS011;700;51.906;8.404;2023-07-20T05:14:56;7.23;;;4.60;;
1410;SDS011;700;51.906;8.404;2023-07-20T05:19:57;3.80;;;3.50;;
1410;SDS011;700;51.906;8.404;2023-07-20T05:25:00;4.23;;;3.80;;
1410;SDS011;700;51.906;8.404;2023-07-20T05:30:00;3.67;;;3.37;;
1410;SDS011;700;51.906;8.404;2023-07-20T05:35:04;4.20;;;3.80;;
1410;SDS011;700;51.906;8.404;2023-07-20T05:40:05;4.30;;;3.90;;
1410;SDS011;700;51.906;8.404;2023-07-20T05:45:08;5.43;;;3.63;;
1410;SDS011;700;51.906;8.404;2023-07-20T05:50:09;4.57;;;4.03;;
1410;SDS011;700;51.906;8.404;2023-07-20T05:55:12;3.30;;;3.00;;
1410;SDS011;700;51.906;8.404;2023-07-20T06:00:13;4.60;;;4.00;;
1410;SDS011;700;51.906;8.404;2023-07-20T06:05:14;3.87;;;3.10;;
1410;SDS011;700;51.906;8.404;2023-07-20T06:10:18;3.60;;;3.07;;
1410;SDS011;700;51.906;8.404;2023-07-20T06:15:31;3.10;;;2.70;;
1410;SDS011;700;51.906;8.404;2023-07-20T06:20:36;2.70;;;2.43;;
1410;SDS011;700;51.906;8.404;2023-07-20T06:25:39;2.70;;;2.50;;
1410;SDS011;700;51.906;8.404;2023-07-20T06:30:40;4.20;;;2.80;;
1410;SDS011;700;51.906;8.404;2023-07-20T06:35:43;10.60;;;5.63;;
1410;SDS011;700;51.906;8.404;2023-07-20T06:40:45;3.50;;;2.30;;
1410;SDS011;700;51.906;8.404;2023-07-20T06:45:55;3.77;;;2.40;;
1410;SDS011;700;51.906;8.404;2023-07-20T06:50:56;2.83;;;1.80;;
1410;SDS011;700;51.906;8.404;2023-07-20T06:55:59;2.57;;;2.03;;
1410;SDS011;700;51.906;8.404;2023-07-20T07:00:59;2.07;;;1.67;;
1410;SDS011;700;51.906;8.404;2023-07-20T07:06:05;2.63;;;2.07;;
1410;SDS011;700;51.906;8.404;2023-07-20T07:11:08;6.30;;;5.33;;
1410;SDS011;700;51.906;8.404;2023-07-20T07:16:11;6.27;;;5.30;;
1410;SDS011;700;51.906;8.404;2023-07-20T07:21:11;3.73;;;2.70;;
1410;SDS011;700;51.906;8.404;2023-07-20T07:26:14;2.73;;;1.60;;
1410;SDS011;700;51.906;8.404;2023-07-20T07:31:18;2.10;;;1.40;;
1410;SDS011;700;51.906;8.404;2023-07-20T07:36:18;6.37;;;5.73;;
1410;SDS011;700;51.906;8.404;2023-07-20T07:41:19;3.17;;;2.20;;
1410;SDS011;700;51.906;8.404;2023-07-20T07:46:20;2.10;;;1.80;;
1410;SDS011;700;51.906;8.404;2023-07-20T07:51:21;3.50;;;2.10;;
1410;SDS011;700;51.906;8.404;2023-07-20T07:56:22;2.33;;;1.90;;
1410;SDS011;700;51.906;8.404;2023-07-20T08:01:24;2.40;;;1.60;;
1410;SDS011;700;51.906;8.404;2023-07-20T08:06:25;1.83;;;1.57;;
1410;SDS011;700;51.906;8.404;2023-07-20T08:11:26;1.90;;;1.33;;
1410;SDS011;700;51.906;8.404;2023-07-20T08:16:27;2.63;;;1.30;;
1410;SDS011;700;51.906;8.404;2023-07-20T08:21:27;2.60;;;1.37;;
1410;SDS011;700;51.906;8.404;2023-07-20T08:26:30;2.60;;;1.60;;
1410;SDS011;700;51.906;8.404;2023-07-20T08:31:31;1.70;;;1.07;;
1410;SDS011;700;51.906;8.404;2023-07-20T08:36:32;3.43;;;1.13;;
1410;SDS011;700;51.906;8.404;2023-07-20T08:41:32;1.97;;;1.00;;
1410;SDS011;700;51.906;8.404;2023-07-20T08:46:41;1.70;;;0.90;;
1410;SDS011;700;51.906;8.404;2023-07-20T08:51:46;1.83;;;0.87;;
1410;SDS011;700;51.906;8.404;2023-07-20T08:56:48;1.57;;;0.90;;
1410;SDS011;700;51.906;8.404;2023-07-20T09:01:50;1.73;;;1.00;;
1410;SDS011;700;51.906;8.404;2023-07-20T09:06:57;1.60;;;0.80;;
1410;SDS011;700;51.906;8.404;2023-07-20T09:11:58;1.30;;;0.80;;
1410;SDS011;700;51.906;8.404;2023-07-20T09:17:01;1.50;;;0.80;;
1410;SDS011;700;51.906;8.404;2023-07-20T09:22:02;1.63;;;1.10;;
1410;SDS011;700;51.906;8.404;2023-07-20T09:27:05;2.30;;;0.90;;
1410;SDS011;700;51.906;8.404;2023-07-20T09:32:06;2.60;;;0.90;;
1410;SDS011;700;51.906;8.404;2023-07-20T09:37:11;1.33;;;0.90;;
1410;SDS011;700;51.906;8.404;2023-07-20T09:42:12;2.60;;;0.90;;
1410;SDS011;700;51.906;8.404;2023-07-20T09:47:13;1.40;;;0.80;;
1410;SDS011;700;51.906;8.404;2023-07-20T09:52:21;1.27;;;0.77;;
1410;SDS011;700;51.906;8.404;2023-07-20T09:57:22;1.50;;;0.80;;
1410;SDS011;700;51.906;8.404;2023-07-20T10:02:29;1.33;;;0.70;;
1410;SDS011;700;51.906;8.404;2023-07-20T10:07:33;1.70;;;0.90;;
1410;SDS011;700;51.906;8.404;2023-07-20T10:12:42;1.97;;;0.80;;
1410;SDS011;700;51.906;8.404;2023-07-20T10:17:55;2.17;;;0.80;;
1410;SDS011;700;51.906;8.404;2023-07-20T10:23:03;2.27;;;0.93;;
1410;SDS011;700;51.906;8.404;2023-07-20T10:28:07;1.40;;;0.80;;
1410;SDS011;700;51.906;8.404;2023-07-20T10:33:08;1.63;;;0.80;;
1410;SDS011;700;51.906;8.404;2023-07-20T10:38:11;2.67;;;1.30;;
1410;SDS011;700;51.906;8.404;2023-07-20T10:43:14;3.30;;;1.03;;
1410;SDS011;700;51.906;8.404;2023-07-20T10:53:21;2.10;;;1.10;;
1410;SDS011;700;51.906;8.404;2023-07-20T10:58:24;3.00;;;1.10;;
1410;SDS011;700;51.906;8.404;2023-07-20T11:03:29;1.87;;;1.20;;
1410;SDS011;700;51.906;8.404;2023-07-20T11:08:44;1.60;;;1.20;;
1410;SDS011;700;51.906;8.404;2023-07-20T11:18:56;2.80;;;1.70;;
1410;SDS011;700;51.906;8.404;2023-07-20T11:24:00;1.90;;;1.53;;
1410;SDS011;700;51.906;8.404;2023-07-20T11:29:03;3.07;;;1.50;;
1410;SDS011;700;51.906;8.404;2023-07-20T11:34:04;2.17;;;1.50;;
1410;SDS011;700;51.906;8.404;2023-07-20T11:39:05;1.40;;;1.20;;
1410;SDS011;700;51.906;8.404;2023-07-20T11:44:07;2.20;;;1.50;;
1410;SDS011;700;51.906;8.404;2023-07-20T11:49:13;1.43;;;1.30;;
1410;SDS011;700;51.906;8.404;2023-07-20T11:54:16;2.33;;;1.33;;
1410;SDS011;700;51.906;8.404;2023-07-20T11:59:19;1.53;;;1.00;;
1410;SDS011;700;51.906;8.404;2023-07-20T12:04:22;2.57;;;1.00;;
1410;SDS011;700;51.906;8.404;2023-07-20T12:09:23;1.90;;;0.80;;
1410;SDS011;700;51.906;8.404;2023-07-20T12:14:25;1.70;;;1.00;;
1410;SDS011;700;51.906;8.404;2023-07-20T12:19:25;1.30;;;1.03;;
1410;SDS011;700;51.906;8.404;2023-07-20T12:24:26;1.63;;;1.00;;
1410;SDS011;700;51.906;8.404;2023-07-20T12:29:27;1.30;;;0.80;;
1410;SDS011;700;51.906;8.404;2023-07-20T12:34:27;1.30;;;0.90;;
1410;SDS011;700;51.906;8.404;2023-07-20T12:39:28;1.30;;;0.70;;
1410;SDS011;700;51.906;8.404;2023-07-20T12:44:29;1.30;;;0.80;;
1410;SDS011;700;51.906;8.404;2023-07-20T12:49:30;1.10;;;0.70;;
1410;SDS011;700;51.906;8.404;2023-07-20T12:54:30;2.90;;;1.27;;
1410;SDS011;700;51.906;8.404;2023-07-20T12:59:31;1.10;;;0.60;;
1410;SDS011;700;51.906;8.404;2023-07-20T13:04:32;1.30;;;0.80;;
1410;SDS011;700;51.906;8.404;2023-07-20T13:09:32;1.50;;;0.87;;
1410;SDS011;700;51.906;8.404;2023-07-20T13:14:33;1.13;;;0.70;;
1410;SDS011;700;51.906;8.404;2023-07-20T13:19:34;1.10;;;0.60;;
1410;SDS011;700;51.906;8.404;2023-07-20T13:24:34;1.40;;;1.10;;
1410;SDS011;700;51.906;8.404;2023-07-20T13:29:35;1.27;;;0.90;;
1410;SDS011;700;51.906;8.404;2023-07-20T13:34:36;1.30;;;0.80;;
1410;SDS011;700;51.906;8.404;2023-07-20T13:39:37;1.57;;;0.80;;
1410;SDS011;700;51.906;8.404;2023-07-20T13:44:38;1.50;;;0.77;;
1410;SDS011;700;51.906;8.404;2023-07-20T13:49:39;1.20;;;0.67;;
1410;SDS011;700;51.906;8.404;2023-07-20T13:54:39;1.50;;;0.80;;
1410;SDS011;700;51.906;8.404;2023-07-20T13:59:43;1.80;;;0.70;;
1410;SDS011;700;51.906;8.404;2023-07-20T14:04:46;2.83;;;0.73;;
1410;SDS011;700;51.906;8.404;2023-07-20T14:09:49;1.50;;;0.80;;
1410;SDS011;700;51.906;8.404;2023-07-20T14:14:50;1.53;;;0.93;;
1410;SDS011;700;51.906;8.404;2023-07-20T14:19:51;1.33;;;0.70;;
1410;SDS011;700;51.906;8.404;2023-07-20T14:24:55;2.17;;;0.90;;
1410;SDS011;700;51.906;8.404;2023-07-20T14:29:58;1.30;;;0.70;;
1410;SDS011;700;51.906;8.404;2023-07-20T14:34:59;1.43;;;0.80;;
1410;SDS011;700;51.906;8.404;2023-07-20T14:40:00;1.60;;;0.90;;
1410;SDS011;700;51.906;8.404;2023-07-20T14:45:00;1.37;;;0.80;;
1410;SDS011;700;51.906;8.404;2023-07-20T14:50:02;1.67;;;1.17;;
1410;SDS011;700;51.906;8.404;2023-07-20T14:55:03;2.17;;;0.80;;
1410;SDS011;700;51.906;8.404;2023-07-20T15:00:05;1.80;;;1.27;;
1410;SDS011;700;51.906;8.404;2023-07-20T15:05:14;1.63;;;0.70;;
1410;SDS011;700;51.906;8.404;2023-07-20T15:10:23;3.13;;;1.60;;
1410;SDS011;700;51.906;8.404;2023-07-20T15:15:23;1.30;;;1.00;;
1410;SDS011;700;51.906;8.404;2023-07-20T15:20:24;2.37;;;1.27;;
1410;SDS011;700;51.906;8.404;2023-07-20T15:25:27;2.37;;;2.00;;
1410;SDS011;700;51.906;8.404;2023-07-20T15:30:28;1.23;;;0.73;;
1410;SDS011;700;51.906;8.404;2023-07-20T15:35:29;1.40;;;0.80;;
1410;SDS011;700;51.906;8.404;2023-07-20T15:40:30;1.47;;;0.80;;
1410;SDS011;700;51.906;8.404;2023-07-20T15:45:33;4.20;;;2.17;;
1410;SDS011;700;51.906;8.404;2023-07-20T15:50:35;1.80;;;1.07;;
1410;SDS011;700;51.906;8.404;2023-07-20T15:55:36;1.57;;;1.10;;
1410;SDS011;700;51.906;8.404;2023-07-20T16:00:37;1.20;;;0.70;;
1410;SDS011;700;51.906;8.404;2023-07-20T16:05:40;1.50;;;0.70;;
1410;SDS011;700;51.906;8.404;2023-07-20T16:10:43;2.80;;;2.43;;
1410;SDS011;700;51.906;8.404;2023-07-20T16:15:46;2.33;;;1.93;;
1410;SDS011;700;51.906;8.404;2023-07-20T16:20:49;1.20;;;0.80;;
1410;SDS011;700;51.906;8.404;2023-07-20T16:25:52;1.93;;;1.07;;
1410;SDS011;700;51.906;8.404;2023-07-20T16:30:53;1.50;;;0.77;;
1410;SDS011;700;51.906;8.404;2023-07-20T16:35:54;1.70;;;1.13;;
1410;SDS011;700;51.906;8.404;2023-07-20T16:40:56;1.30;;;0.73;;
1410;SDS011;700;51.906;8.404;2023-07-20T16:46:03;1.67;;;0.83;;
1410;SDS011;700;51.906;8.404;2023-07-20T16:51:05;1.30;;;0.90;;
1410;SDS011;700;51.906;8.404;2023-07-20T16:56:06;2.13;;;0.80;;
1410;SDS011;700;51.906;8.404;2023-07-20T17:01:07;1.90;;;1.00;;
1410;SDS011;700;51.906;8.404;2023-07-20T17:06:07;1.60;;;0.93;;
1410;SDS011;700;51.906;8.404;2023-07-20T17:11:08;1.40;;;0.80;;
1410;SDS011;700;51.906;8.404;2023-07-20T17:16:08;1.50;;;0.80;;
1410;SDS011;700;51.906;8.404;2023-07-20T17:21:11;1.50;;;0.87;;
1410;SDS011;700;51.906;8.404;2023-07-20T17:26:15;2.70;;;0.80;;
1410;SDS011;700;51.906;8.404;2023-07-20T17:31:16;1.30;;;0.83;;
1410;SDS011;700;51.906;8.404;2023-07-20T17:36:17;1.80;;;1.00;;
1410;SDS011;700;51.906;8.404;2023-07-20T17:41:20;1.50;;;0.90;;
1410;SDS011;700;51.906;8.404;2023-07-20T17:46:21;1.90;;;0.90;;
1410;SDS011;700;51.906;8.404;2023-07-20T17:51:24;3.00;;;1.03;;
1410;SDS011;700;51.906;8.404;2023-07-20T17:56:27;1.40;;;0.90;;
1410;SDS011;700;51.906;8.404;2023-07-20T18:01:27;3.20;;;1.10;;
1410;SDS011;700;51.906;8.404;2023-07-20T18:06:30;1.40;;;0.80;;
1410;SDS011;700;51.906;8.404;2023-07-20T18:11:36;1.70;;;0.90;;
1410;SDS011;700;51.906;8.404;2023-07-20T18:16:39;1.63;;;1.00;;
1410;SDS011;700;51.906;8.404;2023-07-20T18:21:40;2.27;;;1.07;;
1410;SDS011;700;51.906;8.404;2023-07-20T18:26:40;2.67;;;1.17;;
1410;SDS011;700;51.906;8.404;2023-07-20T18:31:41;2.70;;;2.20;;
1410;SDS011;700;51.906;8.404;2023-07-20T18:36:41;1.53;;;0.80;;
1410;SDS011;700;51.906;8.404;2023-07-20T18:41:42;1.90;;;0.77;;
1410;SDS011;700;51.906;8.404;2023-07-20T18:46:43;4.47;;;2.37;;
1410;SDS011;700;51.906;8.404;2023-07-20T18:51:43;1.80;;;1.00;;
1410;SDS011;700;51.906;8.404;2023-07-20T18:56:48;1.60;;;0.80;;
1410;SDS011;700;51.906;8.404;2023-07-20T19:01:49;1.50;;;1.00;;
1410;SDS011;700;51.906;8.404;2023-07-20T19:06:55;1.87;;;1.03;;
1410;SDS011;700;51.906;8.404;2023-07-20T19:11:55;1.90;;;1.00;;
1410;SDS011;700;51.906;8.404;2023-07-20T19:16:58;1.60;;;0.90;;
1410;SDS011;700;51.906;8.404;2023-07-20T19:21:59;2.07;;;0.90;;
1410;SDS011;700;51.906;8.404;2023-07-20T19:26:59;1.50;;;0.83;;
1410;SDS011;700;51.906;8.404;2023-07-20T19:32:02;2.10;;;1.00;;
1410;SDS011;700;51.906;8.404;2023-07-20T19:37:06;2.13;;;1.00;;
1410;SDS011;700;51.906;8.404;2023-07-20T19:42:06;1.60;;;0.90;;
1410;SDS011;700;51.906;8.404;2023-07-20T19:47:07;2.13;;;1.07;;
1410;SDS011;700;51.906;8.404;2023-07-20T19:52:08;1.73;;;1.00;;
1410;SDS011;700;51.906;8.404;2023-07-20T19:57:09;1.60;;;0.90;;
1410;SDS011;700;51.906;8.404;2023-07-20T20:02:09;3.83;;;1.00;;
1410;SDS011;700;51.906;8.404;2023-07-20T20:07:10;2.10;;;1.20;;
1410;SDS011;700;51.906;8.404;2023-07-20T20:12:16;1.93;;;1.10;;
1410;SDS011;700;51.906;8.404;2023-07-20T20:17:18;2.10;;;1.27;;
1410;SDS011;700;51.906;8.404;2023-07-20T20:22:19;2.03;;;1.17;;
1410;SDS011;700;51.906;8.404;2023-07-20T20:27:22;2.77;;;1.63;;
1410;SDS011;700;51.906;8.404;2023-07-20T20:32:23;1.73;;;1.23;;
1410;SDS011;700;51.906;8.404;2023-07-20T20:37:29;2.40;;;1.27;;
1410;SDS011;700;51.906;8.404;2023-07-20T20:42:29;2.07;;;1.00;;
1410;SDS011;700;51.906;8.404;2023-07-20T20:47:30;1.53;;;1.10;;
1410;SDS011;700;51.906;8.404;2023-07-20T20:52:34;2.57;;;1.23;;
1410;SDS011;700;51.906;8.404;2023-07-20T20:57:35;2.27;;;1.30;;
1410;SDS011;700;51.906;8.404;2023-07-20T21:02:38;1.70;;;1.37;;
1410;SDS011;700;51.906;8.404;2023-07-20T21:07:41;1.90;;;1.30;;
1410;SDS011;700;51.906;8.404;2023-07-20T21:12:42;1.97;;;1.23;;
1410;SDS011;700;51.906;8.404;2023-07-20T21:17:42;1.90;;;1.30;;
1410;SDS011;700;51.906;8.404;2023-07-20T21:22:43;2.40;;;1.40;;
1410;SDS011;700;51.906;8.404;2023-07-20T21:27:44;2.00;;;1.50;;
1410;SDS011;700;51.906;8.404;2023-07-20T21:32:44;1.70;;;1.10;;
1410;SDS011;700;51.906;8.404;2023-07-20T21:37:49;1.93;;;1.10;;
1410;SDS011;700;51.906;8.404;2023-07-20T21:42:53;1.50;;;1.00;;
1410;SDS011;700;51.906;8.404;2023-07-20T21:47:53;1.77;;;1.07;;
1410;SDS011;700;51.906;8.404;2023-07-20T21:52:54;1.40;;;1.07;;
1410;SDS011;700;51.906;8.404;2023-07-20T21:57:55;1.80;;;1.00;;
1410;SDS011;700;51.906;8.404;2023-07-20T22:02:55;2.20;;;1.13;;
1410;SDS011;700;51.906;8.404;2023-07-20T22:07:56;2.23;;;1.43;;
1410;SDS011;700;51.906;8.404;2023-07-20T22:12:59;2.03;;;1.20;;
1410;SDS011;700;51.906;8.404;2023-07-20T22:18:00;1.70;;;1.10;;
1410;SDS011;700;51.906;8.404;2023-07-20T22:23:05;2.43;;;1.00;;
1410;SDS011;700;51.906;8.404;2023-07-20T22:28:06;1.70;;;1.17;;
1410;SDS011;700;51.906;8.404;2023-07-20T22:33:06;1.90;;;1.20;;
1410;SDS011;700;51.906;8.404;2023-07-20T22:38:07;1.77;;;1.10;;
1410;SDS011;700;51.906;8.404;2023-07-20T22:43:10;1.70;;;1.10;;
1410;SDS011;700;51.906;8.404;2023-07-20T22:48:10;2.10;;;1.50;;
1410;SDS011;700;51.906;8.404;2023-07-20T22:53:15;1.77;;;1.00;;
1410;SDS011;700;51.906;8.404;2023-07-20T22:58:15;1.70;;;1.13;;
1410;SDS011;700;51.906;8.404;2023-07-20T23:03:16;2.90;;;1.20;;
1410;SDS011;700;51.906;8.404;2023-07-20T23:08:19;1.80;;;1.03;;
1410;SDS011;700;51.906;8.404;2023-07-20T23:13:19;2.50;;;1.20;;
1410;SDS011;700;51.906;8.404;2023-07-20T23:18:22;4.83;;;1.30;;
1410;SDS011;700;51.906;8.404;2023-07-20T23:23:25;2.00;;;1.03;;
1410;SDS011;700;51.906;8.404;2023-07-20T23:28:28;3.20;;;1.17;;
1410;SDS011;700;51.906;8.404;2023-07-20T23:33:29;3.73;;;1.43;;
1410;SDS011;700;51.906;8.404;2023-07-20T23:38:30;1.90;;;1.30;;
1410;SDS011;700;51.906;8.404;2023-07-20T23:43:31;2.20;;;1.50;;
1410;SDS011;700;51.906;8.404;2023-07-20T23:48:35;2.17;;;1.10;;
1410;SDS011;700;51.906;8.404;2023-07-20T23:53:40;1.83;;;1.30;;
1410;SDS011;700;51.906;8.404;2023-07-20T23:58:45;2.70;;;1.40;;
